createdAt,value
2023-01-21T00:01:17.127Z,75.88
2023-01-21T00:03:44.622Z,72.38
2023-01-21T00:06:14.864Z,70.82
2023-01-21T00:08:42.251Z,74.95
2023-01-21T00:11:11.364Z,78.68
2023-01-21T00:13:38.652Z,75.63
2023-01-21T00:16:06.231Z,68.18
2023-01-21T00:18:33.615Z,69.65
2023-01-21T00:21:01.236Z,73.75
2023-01-21T00:23:28.496Z,70.70
2023-01-21T00:25:59.428Z,73.45
2023-01-21T00:28:28.388Z,68.65
2023-01-21T00:30:59.506Z,73.97
2023-01-21T00:33:27.136Z,72.30
2023-01-21T00:36:13.958Z,71.75
2023-01-21T00:38:41.333Z,68.97
2023-01-21T00:41:10.269Z,73.50
2023-01-21T00:43:37.509Z,67.30
2023-01-21T00:46:04.909Z,80.75
2023-01-21T00:48:32.420Z,67.63
2023-01-21T00:51:02.839Z,63.10
2023-01-21T00:53:30.987Z,66.05
2023-01-21T00:56:02.284Z,65.80
2023-01-21T00:58:30.414Z,70.50
2023-01-21T01:01:04.943Z,67.60
2023-01-21T01:03:32.881Z,65.20
2023-01-21T01:06:04.417Z,65.75
2023-01-21T01:08:31.875Z,66.70
2023-01-21T01:10:59.594Z,64.43
2023-01-21T01:13:27.788Z,65.75
2023-01-21T01:15:57.411Z,62.45
2023-01-21T01:18:26.184Z,65.90
2023-01-21T01:20:53.451Z,63.70
2023-01-21T01:23:20.784Z,60.13
2023-01-21T01:26:04.779Z,68.03
2023-01-21T01:28:32.317Z,62.47
2023-01-21T01:31:00.045Z,65.03
2023-01-21T01:33:27.928Z,59.65
2023-01-21T01:35:55.356Z,59.70
2023-01-21T01:38:23.402Z,68.65
2023-01-21T01:40:52.480Z,67.93
2023-01-21T01:43:21.252Z,70.70
2023-01-21T01:45:49.175Z,73.70
2023-01-21T01:48:21.360Z,69.80
2023-01-21T01:50:48.899Z,70.03
2023-01-21T01:53:18.007Z,64.70
2023-01-21T01:55:46.302Z,64.55
2023-01-21T01:58:14.688Z,60.60
2023-01-21T02:00:41.987Z,66.35
2023-01-21T02:03:28.333Z,62.05
2023-01-21T02:05:56.274Z,59.30
2023-01-21T02:08:24.789Z,68.68
2023-01-21T02:10:56.035Z,65.87
2023-01-21T02:13:27.179Z,60.30
2023-01-21T02:15:54.381Z,61.83
2023-01-21T02:18:31.323Z,62.20
2023-01-21T02:21:04.670Z,69.13
2023-01-21T02:23:46.974Z,64.45
2023-01-21T02:26:42.702Z,60.15
2023-01-21T02:29:28.698Z,61.83
2023-01-21T02:32:11.399Z,64.57
2023-01-21T02:34:48.023Z,65.20
2023-01-21T02:37:22.424Z,62.25
2023-01-21T02:39:55.887Z,51.60
2023-01-21T02:42:33.380Z,69.93
2023-01-21T02:45:06.547Z,65.15
2023-01-21T02:47:38.638Z,57.47
2023-01-21T02:50:09.176Z,63.75
2023-01-21T02:52:36.441Z,59.63
2023-01-21T02:55:04.126Z,59.55
2023-01-21T02:57:51.531Z,64.90
2023-01-21T03:00:21.269Z,58.33
2023-01-21T03:03:12.903Z,62.67
2023-01-21T03:05:43.975Z,59.25
2023-01-21T03:08:30.374Z,58.13
2023-01-21T03:11:04.509Z,56.80
2023-01-21T03:13:53.676Z,57.05
2023-01-21T03:16:43.278Z,57.00
2023-01-21T03:19:12.979Z,62.33
2023-01-21T03:21:40.668Z,54.47
2023-01-21T03:24:09.088Z,62.78
2023-01-21T03:26:39.496Z,50.73
2023-01-21T03:29:08.475Z,55.92
2023-01-21T03:31:37.954Z,53.72
2023-01-21T03:34:07.682Z,59.85
2023-01-21T03:36:53.873Z,64.22
2023-01-21T03:39:43.475Z,61.05
2023-01-21T03:42:10.939Z,73.43
2023-01-21T03:44:38.621Z,68.57
2023-01-21T03:47:16.842Z,77.00
2023-01-21T03:49:50.506Z,67.75
2023-01-21T03:52:19.203Z,60.72
2023-01-21T03:54:48.028Z,69.40
2023-01-21T03:57:15.353Z,72.65
2023-01-21T03:59:42.757Z,61.05
2023-01-21T04:02:10.135Z,63.88
2023-01-21T04:04:37.460Z,61.42
2023-01-21T04:07:04.764Z,59.95
2023-01-21T04:09:32.028Z,67.80
2023-01-21T04:12:00.404Z,58.83
2023-01-21T04:14:27.709Z,62.73
2023-01-21T04:16:55.739Z,61.45
2023-01-21T04:19:22.964Z,67.72
2023-01-21T04:21:50.232Z,59.28
2023-01-21T04:24:17.518Z,57.00
2023-01-21T04:26:44.825Z,64.90
2023-01-21T04:29:12.077Z,64.28
2023-01-21T04:31:39.375Z,67.85
2023-01-21T04:34:06.801Z,67.30
2023-01-21T04:36:34.124Z,58.78
2023-01-21T04:39:01.384Z,57.50
2023-01-21T04:41:28.642Z,59.45
2023-01-21T04:43:55.844Z,70.03
2023-01-21T04:46:23.144Z,60.60
2023-01-21T04:48:50.406Z,64.50
2023-01-21T04:51:17.748Z,58.83
2023-01-21T04:53:45.004Z,59.72
2023-01-21T04:56:12.230Z,62.08
2023-01-21T04:58:39.440Z,67.20
2023-01-21T05:01:06.799Z,73.72
2023-01-21T05:03:34.141Z,56.05
2023-01-21T05:06:01.372Z,60.80
2023-01-21T05:08:28.668Z,68.03
2023-01-21T05:10:55.872Z,66.32
2023-01-21T05:13:23.198Z,61.33
2023-01-21T05:15:50.516Z,61.13
2023-01-21T05:18:17.763Z,64.55
2023-01-21T05:20:44.991Z,59.80
2023-01-21T05:23:12.276Z,64.80
2023-01-21T05:25:39.552Z,55.53
2023-01-21T05:28:06.787Z,61.58
2023-01-21T05:30:34.077Z,66.15
2023-01-21T05:33:01.357Z,58.85
2023-01-21T05:35:28.657Z,57.95
2023-01-21T05:37:56.131Z,56.42
2023-01-21T05:40:23.383Z,57.00
2023-01-21T05:42:50.605Z,57.70
2023-01-21T05:45:17.832Z,60.95
2023-01-21T05:47:45.039Z,64.18
2023-01-21T05:50:12.756Z,62.83
2023-01-21T05:52:40.039Z,57.08
2023-01-21T05:55:07.783Z,71.75
2023-01-21T05:57:35.173Z,60.20
2023-01-21T06:00:02.589Z,60.75
2023-01-21T06:02:32.109Z,58.47
2023-01-21T06:04:59.469Z,52.40
2023-01-21T06:07:26.802Z,60.75
2023-01-21T06:09:55.029Z,62.78
2023-01-21T06:12:23.887Z,60.55
2023-01-21T06:14:52.055Z,59.03
2023-01-21T06:17:19.288Z,61.75
2023-01-21T06:19:46.565Z,57.58
2023-01-21T06:22:17.284Z,62.38
2023-01-21T06:24:44.626Z,62.30
2023-01-21T06:27:11.907Z,59.65
2023-01-21T06:29:39.141Z,66.38
2023-01-21T06:32:06.712Z,57.85
2023-01-21T06:34:34.062Z,58.33
2023-01-21T06:37:01.265Z,56.30
2023-01-21T06:39:28.491Z,65.15
2023-01-21T06:41:55.720Z,60.03
2023-01-21T06:44:23.511Z,65.78
2023-01-21T06:47:00.712Z,60.72
2023-01-21T06:49:28.628Z,60.10
2023-01-21T06:51:56.431Z,58.85
2023-01-21T06:54:23.743Z,61.17
2023-01-21T06:56:50.994Z,55.83
2023-01-21T06:59:18.227Z,58.55
2023-01-21T07:01:45.573Z,65.53
2023-01-21T07:04:12.843Z,59.65
2023-01-21T07:06:40.564Z,65.25
2023-01-21T07:09:08.184Z,64.40
2023-01-21T07:11:35.935Z,62.83
2023-01-21T07:14:03.169Z,61.92
2023-01-21T07:16:30.476Z,63.97
2023-01-21T07:18:57.737Z,58.22
2023-01-21T07:21:25.764Z,64.85
2023-01-21T07:23:53.547Z,62.92
2023-01-21T07:26:21.143Z,67.22
2023-01-21T07:28:48.491Z,59.55
2023-01-21T07:31:15.862Z,66.75
2023-01-21T07:33:43.287Z,68.07
2023-01-21T07:36:10.593Z,68.68
2023-01-21T07:38:37.891Z,77.35
2023-01-21T07:41:05.188Z,79.22
2023-01-21T07:43:32.410Z,86.38
2023-01-21T07:46:00.417Z,103.25
2023-01-21T07:48:27.710Z,119.35
2023-01-21T07:50:57.998Z,134.32
2023-01-21T07:53:25.524Z,105.07
2023-01-21T07:55:53.180Z,117.10
2023-01-21T07:58:20.491Z,145.25
2023-01-21T08:00:47.745Z,140.98
2023-01-21T08:03:15.147Z,132.30
2023-01-21T08:05:42.454Z,195.23
2023-01-21T08:08:09.719Z,137.02
2023-01-21T08:10:37.005Z,186.98
2023-01-21T08:13:04.481Z,143.60
2023-01-21T08:15:31.738Z,108.75
2023-01-21T08:17:58.968Z,141.13
2023-01-21T08:20:26.400Z,110.10
2023-01-21T08:22:53.712Z,121.50
2023-01-21T08:25:20.979Z,185.68
2023-01-21T08:27:48.182Z,196.75
2023-01-21T08:30:16.019Z,146.40
2023-01-21T08:32:43.321Z,159.63
2023-01-21T08:35:10.748Z,143.85
2023-01-21T08:37:39.646Z,158.02
2023-01-21T08:40:07.301Z,131.70
2023-01-21T08:42:34.537Z,106.68
2023-01-21T08:45:01.806Z,120.40
2023-01-21T08:47:29.110Z,104.03
2023-01-21T08:49:56.355Z,73.72
2023-01-21T08:52:23.691Z,103.60
2023-01-21T08:54:50.996Z,88.15
2023-01-21T08:57:18.300Z,89.53
2023-01-21T08:59:45.705Z,105.28
2023-01-21T09:02:13.116Z,86.05
2023-01-21T09:04:40.348Z,111.68
2023-01-21T09:07:07.673Z,102.68
2023-01-21T09:09:34.999Z,70.10
2023-01-21T09:12:02.325Z,72.28
2023-01-21T09:14:30.613Z,58.95
2023-01-21T09:16:58.136Z,50.25
2023-01-21T09:19:25.589Z,55.92
2023-01-21T09:21:54.404Z,61.17
2023-01-21T09:24:21.964Z,57.08
2023-01-21T09:26:49.181Z,69.47
2023-01-21T09:29:16.479Z,70.28
2023-01-21T09:31:43.833Z,68.45
2023-01-21T09:34:11.780Z,68.38
2023-01-21T09:36:39.483Z,76.45
2023-01-21T09:39:08.039Z,75.03
2023-01-21T09:41:40.305Z,58.15
2023-01-21T09:44:10.289Z,67.45
2023-01-21T09:46:47.615Z,71.20
2023-01-21T09:49:27.289Z,66.13
2023-01-21T09:52:06.578Z,73.60
2023-01-21T09:57:08.225Z,75.93
2023-01-21T09:59:44.140Z,77.60
2023-01-21T10:02:21.470Z,73.35
2023-01-21T10:04:52.730Z,74.25
2023-01-21T10:07:25.731Z,71.65
2023-01-21T10:10:07.004Z,75.60
2023-01-21T10:12:52.826Z,70.88
2023-01-21T10:15:23.294Z,71.50
2023-01-21T10:18:04.415Z,68.18
2023-01-21T10:20:40.100Z,67.25
2023-01-21T10:23:11.907Z,71.90
2023-01-21T10:25:39.875Z,64.95
2023-01-21T10:28:36.628Z,63.92
2023-01-21T10:31:08.047Z,58.50
2023-01-21T10:33:35.470Z,61.35
2023-01-21T10:36:08.928Z,66.22
2023-01-21T10:38:55.152Z,63.95
2023-01-21T10:41:22.336Z,66.32
2023-01-21T10:44:06.067Z,70.60
2023-01-21T10:46:37.901Z,72.35
2023-01-21T10:49:23.315Z,76.18
2023-01-21T10:51:54.228Z,72.93
2023-01-21T10:54:22.648Z,73.15
2023-01-21T10:56:59.779Z,69.72
2023-01-21T10:59:31.045Z,74.00
2023-01-21T11:02:09.170Z,71.68
2023-01-21T11:04:41.626Z,68.10
2023-01-21T11:07:10.358Z,69.10
2023-01-21T11:09:39.567Z,54.28
2023-01-21T11:12:06.916Z,73.78
2023-01-21T11:14:34.802Z,64.70
2023-01-21T11:17:02.462Z,60.58
2023-01-21T11:19:31.070Z,60.35
2023-01-21T11:22:20.864Z,51.50
2023-01-21T11:24:49.328Z,62.88
2023-01-21T11:27:21.631Z,60.17
2023-01-21T11:29:49.751Z,62.60
2023-01-21T11:32:18.983Z,57.92
2023-01-21T11:34:47.347Z,59.25
2023-01-21T11:37:25.965Z,65.07
2023-01-21T11:40:05.479Z,51.05
2023-01-21T11:42:32.748Z,60.33
2023-01-21T11:45:04.313Z,64.05
2023-01-21T11:47:37.234Z,62.78
2023-01-21T11:50:10.786Z,60.25
2023-01-21T11:52:38.087Z,61.05
2023-01-21T11:55:17.779Z,58.00
2023-01-21T11:57:49.549Z,58.80
2023-01-21T12:00:21.074Z,52.83
2023-01-21T12:02:59.194Z,57.92
2023-01-21T12:05:26.401Z,63.53
2023-01-21T12:07:53.738Z,54.75
2023-01-21T12:10:31.754Z,54.50
2023-01-21T12:13:02.251Z,59.35
2023-01-21T12:15:35.348Z,67.10
2023-01-21T12:18:12.273Z,58.53
2023-01-21T12:20:48.161Z,56.83
2023-01-21T12:23:35.795Z,60.92
2023-01-21T12:26:29.197Z,51.85
2023-01-21T12:28:59.539Z,51.20
2023-01-21T12:31:32.678Z,60.17
2023-01-21T12:34:04.730Z,66.15
2023-01-21T12:36:34.881Z,55.55
2023-01-21T12:39:14.409Z,67.75
2023-01-21T12:41:43.771Z,72.30
2023-01-21T12:46:40.983Z,55.65
2023-01-21T12:49:24.555Z,69.35
2023-01-21T12:52:03.792Z,61.88
2023-01-21T12:54:39.621Z,58.92
2023-01-21T12:57:24.989Z,61.45
2023-01-21T13:00:04.248Z,76.25
2023-01-21T13:04:58.667Z,59.53
2023-01-21T13:07:25.918Z,63.78
2023-01-21T13:10:13.222Z,57.92
2023-01-21T13:12:42.065Z,62.88
2023-01-21T13:15:18.565Z,57.88
2023-01-21T13:17:49.589Z,56.30
2023-01-21T13:20:18.042Z,57.47
2023-01-21T13:22:50.353Z,48.28
2023-01-21T13:25:17.993Z,52.70
2023-01-21T13:27:52.568Z,48.42
2023-01-21T13:30:31.306Z,66.20
2023-01-21T13:33:24.981Z,41.78
2023-01-21T13:36:01.348Z,57.15
2023-01-21T13:38:28.686Z,53.15
2023-01-21T13:40:55.940Z,70.45
2023-01-21T13:43:30.056Z,51.65
2023-01-21T13:46:00.504Z,48.00
2023-01-21T13:48:40.219Z,87.05
2023-01-21T13:51:14.889Z,71.28
2023-01-21T13:54:00.052Z,58.72
2023-01-21T13:56:30.113Z,57.90
2023-01-21T13:58:59.427Z,57.58
2023-01-21T14:01:38.919Z,61.53
2023-01-21T14:04:11.100Z,64.95
2023-01-21T14:06:41.339Z,76.20
2023-01-21T14:09:13.730Z,60.95
2023-01-21T14:11:54.276Z,56.42
2023-01-21T14:14:34.281Z,87.40
2023-01-21T14:17:01.540Z,75.70
2023-01-21T14:19:35.131Z,151.23
2023-01-21T14:22:11.357Z,77.30
2023-01-21T14:24:46.321Z,53.20
2023-01-21T14:27:19.592Z,57.78
2023-01-21T14:29:54.039Z,67.40
2023-01-21T14:32:26.430Z,75.93
2023-01-21T14:35:06.806Z,96.25
2023-01-21T14:37:52.983Z,101.15
2023-01-21T14:40:31.164Z,87.85
2023-01-21T14:42:59.205Z,82.70
2023-01-21T14:45:46.487Z,59.03
2023-01-21T14:48:32.897Z,52.15
2023-01-21T14:51:06.385Z,50.30
2023-01-21T14:53:42.571Z,64.70
2023-01-21T14:56:16.273Z,43.90
2023-01-21T14:58:47.432Z,50.80
2023-01-21T15:01:33.442Z,58.10
2023-01-21T15:04:04.344Z,50.75
2023-01-21T15:06:32.272Z,55.95
2023-01-21T15:09:01.129Z,51.53
2023-01-21T15:11:35.055Z,41.03
2023-01-21T15:14:07.340Z,43.88
2023-01-21T15:16:35.966Z,52.70
2023-01-21T15:19:09.449Z,46.15
2023-01-21T15:21:36.733Z,44.53
2023-01-21T15:24:20.790Z,49.40
2023-01-21T15:27:06.946Z,53.97
2023-01-21T15:29:35.417Z,43.10
2023-01-21T15:32:22.374Z,49.13
2023-01-21T15:34:51.704Z,40.25
2023-01-21T15:37:21.774Z,42.70
2023-01-21T15:39:52.260Z,49.88
2023-01-21T15:42:25.396Z,43.45
2023-01-21T15:45:00.124Z,43.13
2023-01-21T15:47:45.832Z,44.72
2023-01-21T15:50:19.282Z,45.03
2023-01-21T15:52:46.505Z,48.10
2023-01-21T15:55:17.024Z,54.60
2023-01-21T15:57:47.444Z,50.13
2023-01-21T16:00:33.167Z,44.20
2023-01-21T16:03:18.559Z,46.38
2023-01-21T16:06:10.364Z,47.33
2023-01-21T16:08:40.815Z,40.90
2023-01-21T16:11:08.112Z,47.08
2023-01-21T16:13:46.944Z,43.83
2023-01-21T16:16:42.263Z,44.15
2023-01-21T16:19:13.758Z,47.85
2023-01-21T16:21:44.273Z,40.05
2023-01-21T16:24:17.127Z,42.13
2023-01-21T16:26:44.561Z,39.03
2023-01-21T16:29:15.570Z,44.15
2023-01-21T16:31:50.745Z,45.97
2023-01-21T16:34:25.242Z,48.08
2023-01-21T16:36:52.663Z,43.47
2023-01-21T16:39:20.289Z,49.15
2023-01-21T16:41:59.928Z,40.78
2023-01-21T16:44:27.306Z,45.83
2023-01-21T16:46:54.650Z,54.88
2023-01-21T16:49:22.000Z,44.83
2023-01-21T16:51:52.082Z,42.83
2023-01-21T16:54:22.149Z,50.67
2023-01-21T16:56:57.038Z,58.13
2023-01-21T16:59:27.498Z,51.38
2023-01-21T17:01:55.511Z,56.90
2023-01-21T17:04:22.883Z,59.85
2023-01-21T17:06:50.137Z,53.63
2023-01-21T17:09:38.008Z,54.00
2023-01-21T17:12:07.795Z,55.08
2023-01-21T17:14:35.883Z,49.72
2023-01-21T17:17:05.006Z,56.00
2023-01-21T17:19:37.067Z,56.25
2023-01-21T17:22:15.086Z,48.60
2023-01-21T17:24:49.172Z,76.25
2023-01-21T17:27:18.903Z,71.53
2023-01-21T17:29:46.256Z,48.72
2023-01-21T17:32:25.762Z,44.97
2023-01-21T17:35:12.857Z,62.53
2023-01-21T17:37:45.756Z,65.43
2023-01-21T17:40:34.544Z,96.15
2023-01-21T17:43:10.142Z,254.55
2023-01-21T17:45:38.541Z,254.68
2023-01-21T17:48:13.323Z,190.25
2023-01-21T17:50:46.270Z,146.70
2023-01-21T17:53:20.366Z,131.07
2023-01-21T17:56:17.161Z,419.08
2023-01-21T17:58:46.145Z,172.57
2023-01-21T18:01:13.564Z,96.68
2023-01-21T18:03:40.818Z,61.75
2023-01-21T18:06:14.711Z,57.58
2023-01-21T18:08:42.087Z,60.20
2023-01-21T18:11:09.748Z,50.42
2023-01-21T18:13:37.046Z,49.20
2023-01-21T18:16:04.451Z,49.35
2023-01-21T18:18:33.491Z,49.53
2023-01-21T18:21:01.915Z,47.75
2023-01-21T18:23:30.050Z,48.57
2023-01-21T18:25:57.401Z,51.45
2023-01-21T18:28:26.299Z,56.15
2023-01-21T18:30:57.965Z,56.65
2023-01-21T18:33:25.724Z,48.47
2023-01-21T18:35:53.427Z,48.72
2023-01-21T18:38:27.070Z,47.40
2023-01-21T18:40:57.610Z,50.30
2023-01-21T18:43:27.976Z,52.75
2023-01-21T18:45:55.205Z,49.05
2023-01-21T18:48:23.733Z,45.47
2023-01-21T18:50:50.977Z,48.13
2023-01-21T18:53:18.304Z,53.30
2023-01-21T18:55:47.897Z,47.97
2023-01-21T18:58:15.122Z,50.65
2023-01-21T19:00:42.435Z,51.05
2023-01-21T19:03:10.698Z,46.65
2023-01-21T19:05:39.116Z,42.40
2023-01-21T19:08:11.760Z,51.53
2023-01-21T19:10:39.047Z,61.95
2023-01-21T19:13:06.406Z,118.70
2023-01-21T19:15:33.639Z,75.95
2023-01-21T19:18:00.974Z,57.10
2023-01-21T19:20:29.230Z,66.25
2023-01-21T19:22:56.831Z,53.00
2023-01-21T19:25:25.765Z,51.05
2023-01-21T19:27:54.969Z,61.58
2023-01-21T19:30:45.036Z,55.72
2023-01-21T19:33:12.844Z,56.58
2023-01-21T19:35:43.056Z,55.63
2023-01-21T19:38:11.919Z,52.72
2023-01-21T19:40:39.206Z,48.42
2023-01-21T19:43:06.673Z,54.15
2023-01-21T19:45:34.104Z,55.63
2023-01-21T19:48:01.372Z,50.72
2023-01-21T19:50:28.676Z,56.53
2023-01-21T19:52:55.929Z,52.38
2023-01-21T19:55:26.586Z,56.53
2023-01-21T19:57:58.163Z,49.72
2023-01-21T20:00:33.046Z,55.53
2023-01-21T20:03:00.410Z,53.17
2023-01-21T20:05:29.435Z,61.25
2023-01-21T20:07:56.772Z,63.78
2023-01-21T20:10:25.515Z,74.95
2023-01-21T20:12:53.097Z,69.57
2023-01-21T20:15:22.803Z,63.22
2023-01-21T20:17:52.550Z,70.72
2023-01-21T20:20:21.358Z,84.10
2023-01-21T20:22:48.952Z,125.32
2023-01-21T20:25:20.950Z,160.18
2023-01-21T20:27:58.129Z,149.48
2023-01-21T20:30:26.723Z,126.70
2023-01-21T20:32:54.234Z,89.63
2023-01-21T20:35:22.557Z,120.28
2023-01-21T20:37:51.166Z,116.68
2023-01-21T20:40:20.137Z,110.53
2023-01-21T20:42:47.841Z,126.47
2023-01-21T20:45:16.022Z,105.32
2023-01-21T20:47:50.058Z,119.55
2023-01-21T20:50:18.251Z,112.05
2023-01-21T20:52:45.867Z,122.13
2023-01-21T20:55:13.612Z,105.53
2023-01-21T20:57:41.282Z,95.22
2023-01-21T21:00:13.611Z,128.93
2023-01-21T21:02:40.909Z,132.73
2023-01-21T21:05:08.414Z,107.13
2023-01-21T21:07:35.688Z,111.57
2023-01-21T21:10:02.982Z,92.00
2023-01-21T21:12:30.352Z,93.25
2023-01-21T21:14:57.566Z,91.45
2023-01-21T21:17:24.907Z,97.82
2023-01-21T21:19:52.148Z,100.93
2023-01-21T21:22:19.552Z,102.07
2023-01-21T21:24:46.857Z,73.78
2023-01-21T21:27:14.192Z,76.72
2023-01-21T21:29:41.417Z,71.25
2023-01-21T21:32:12.496Z,85.82
2023-01-21T21:34:40.039Z,82.35
2023-01-21T21:37:07.817Z,77.13
2023-01-21T21:39:35.168Z,66.30
2023-01-21T21:42:21.095Z,90.10
2023-01-21T21:44:48.279Z,92.05
2023-01-21T21:47:34.164Z,86.32
2023-01-21T21:50:01.391Z,118.68
2023-01-21T21:52:30.245Z,108.75
2023-01-21T21:54:57.440Z,99.68
2023-01-21T21:57:24.674Z,88.85
2023-01-21T21:59:51.985Z,92.35
2023-01-21T22:02:20.226Z,97.72
2023-01-21T22:04:47.578Z,78.95
2023-01-21T22:07:14.819Z,59.17
2023-01-21T22:09:42.082Z,61.63
2023-01-21T22:12:09.387Z,52.20
2023-01-21T22:14:36.681Z,47.10
2023-01-21T22:17:04.011Z,33.67
2023-01-21T22:19:31.242Z,39.30
2023-01-21T22:21:58.734Z,38.47
2023-01-21T22:24:25.988Z,36.53
2023-01-21T22:26:53.215Z,31.75
2023-01-21T22:29:20.981Z,35.42
2023-01-21T22:31:48.391Z,32.13
2023-01-21T22:34:15.758Z,35.38
2023-01-21T22:36:47.074Z,37.17
2023-01-21T22:39:14.608Z,38.15
2023-01-21T22:41:41.865Z,39.53
2023-01-21T22:44:09.225Z,36.72
2023-01-21T22:46:36.574Z,32.75
2023-01-21T22:49:03.977Z,39.88
2023-01-21T22:51:31.319Z,34.85
2023-01-21T22:54:00.212Z,34.75
2023-01-21T22:56:49.704Z,34.40
2023-01-21T22:59:15.068Z,42.15
2023-01-21T23:01:42.510Z,36.83
2023-01-21T23:04:10.107Z,41.00
2023-01-21T23:06:37.919Z,39.47
2023-01-21T23:09:06.702Z,38.03
2023-01-21T23:11:36.797Z,37.13
2023-01-21T23:14:04.133Z,38.72
2023-01-21T23:16:31.375Z,41.78
2023-01-21T23:18:58.912Z,38.53
2023-01-21T23:21:26.142Z,41.83
2023-01-21T23:23:53.446Z,42.85
2023-01-21T23:26:20.969Z,40.30
2023-01-21T23:28:48.335Z,43.88
2023-01-21T23:31:17.112Z,44.75
2023-01-21T23:33:44.662Z,41.25
2023-01-21T23:36:13.605Z,40.38
2023-01-21T23:38:41.430Z,42.00
2023-01-21T23:41:10.058Z,47.55
2023-01-21T23:43:37.631Z,43.90
2023-01-21T23:46:05.942Z,45.22
2023-01-21T23:48:33.274Z,32.95
2023-01-21T23:51:04.544Z,43.22
2023-01-21T23:53:32.627Z,42.28
2023-01-21T23:56:20.559Z,47.53
2023-01-21T23:58:48.138Z,48.05
